Huvudsida
METAR-TAF:

METAR-TAF

Flygplatser :

Nakhon Ratchasima, Thailand

latitud: 14-56-58N, longitud: 102-18-45E, höjd: 233 m

Aktuellt väderrapport

Denna rapport gjordes för 35 minuter sedan, klockan 11:00 UTC
Vind 2 kt varierande vindriktning
Temperatur 34°C
Fuktighet 47%
Tryck 1004 hPa
Sikt: 9000 m
Få moln på en höjd av 3000 ft

METAR: VTUQ 181100Z VRB02KT 9000 FEW030 34/21 Q1004 NOSIG

Tid: 18:35 (11:35 UTC)

Väderprognos

Denna rapport gjordes för 6 timmar och 35 minuter sedan, klockan 05:00 UTC
Prognos gäller från 18 kl. 06 UTC till 19 kl. 06 UTC
Vind 5 kt från väst/sydväst
Sikt: 8000 m
Få moln på en höjd av 3000 ft

TAF: VTUQ 180500Z 1806/1906 24005KT 8000 FEW030

Aktuella väderrapporter och prognoser från 4000 flygplatser (METAR- och TAF-rapporter).

De tillgängliga stationerna syns som gula och röda prickar på kartan.

För musen över prickarna för att se namnen på stationerna.

Klicka sedan för att få väderrapporter och prognoser.

För att ändra kartan: Klicka på de gröna knapparna med ett svart kors på för att zooma in; den gröna knappen med ett streck på för att zooma ut; eller på de gröna pilarna för angränsande kartor.


METAR-TAF: